sensor_id;sensor_type;location;lat;lon;timestamp;pressure;altitude;pressure_sealevel;temperature;humidity
41515;BME280;27247;48.020;16.720;2023-03-21T00:02:27;100022.81;;;10.95;79.67
41515;BME280;27247;48.020;16.720;2023-03-21T00:06:38;100022.66;;;10.88;80.16
41515;BME280;27247;48.020;16.720;2023-03-21T00:11:00;100017.16;;;10.82;80.38
41515;BME280;27247;48.020;16.720;2023-03-21T00:15:11;100020.72;;;10.74;81.11
41515;BME280;27247;48.020;16.720;2023-03-21T00:19:22;100019.38;;;10.70;81.19
41515;BME280;27247;48.020;16.720;2023-03-21T00:23:35;100011.72;;;10.67;81.48
41515;BME280;27247;48.020;16.720;2023-03-21T00:27:45;100020.41;;;10.61;81.52
41515;BME280;27247;48.020;16.720;2023-03-21T00:31:56;100014.56;;;10.58;81.34
41515;BME280;27247;48.020;16.720;2023-03-21T00:36:07;100013.44;;;10.52;81.32
41515;BME280;27247;48.020;16.720;2023-03-21T00:40:18;100006.75;;;10.48;81.36
41515;BME280;27247;48.020;16.720;2023-03-21T00:44:29;99998.91;;;10.38;81.05
41515;BME280;27247;48.020;16.720;2023-03-21T00:48:45;99993.06;;;10.35;81.38
41515;BME280;27247;48.020;16.720;2023-03-21T00:52:56;99991.41;;;10.34;82.10
41515;BME280;27247;48.020;16.720;2023-03-21T00:57:06;99992.75;;;10.30;82.35
41515;BME280;27247;48.020;16.720;2023-03-21T01:01:17;99988.91;;;10.24;81.90
41515;BME280;27247;48.020;16.720;2023-03-21T01:05:29;99990.09;;;10.21;82.53
41515;BME280;27247;48.020;16.720;2023-03-21T01:09:57;99985.22;;;10.17;82.27
41515;BME280;27247;48.020;16.720;2023-03-21T01:14:08;99976.53;;;10.15;82.49
41515;BME280;27247;48.020;16.720;2023-03-21T01:18:21;99981.72;;;10.16;82.64
41515;BME280;27247;48.020;16.720;2023-03-21T01:22:34;99975.22;;;10.11;83.33
41515;BME280;27247;48.020;16.720;2023-03-21T01:26:44;99983.41;;;10.09;83.37
41515;BME280;27247;48.020;16.720;2023-03-21T01:30:55;99974.72;;;10.07;82.98
41515;BME280;27247;48.020;16.720;2023-03-21T01:35:05;99986.56;;;10.05;82.98
41515;BME280;27247;48.020;16.720;2023-03-21T01:39:16;99974.38;;;10.02;82.78
41515;BME280;27247;48.020;16.720;2023-03-21T01:43:27;99984.22;;;10.02;83.15
41515;BME280;27247;48.020;16.720;2023-03-21T01:47:38;99965.88;;;9.99;83.25
41515;BME280;27247;48.020;16.720;2023-03-21T01:51:57;99984.22;;;10.02;83.62
41515;BME280;27247;48.020;16.720;2023-03-21T01:56:27;99972.56;;;9.95;83.60
41515;BME280;27247;48.020;16.720;2023-03-21T02:00:38;99960.72;;;9.89;83.65
41515;BME280;27247;48.020;16.720;2023-03-21T02:04:50;99959.06;;;9.80;83.82
41515;BME280;27247;48.020;16.720;2023-03-21T02:09:08;99963.91;;;9.84;83.26
41515;BME280;27247;48.020;16.720;2023-03-21T02:13:19;99956.88;;;9.83;83.20
41515;BME280;27247;48.020;16.720;2023-03-21T02:17:54;99957.56;;;9.69;82.90
41515;BME280;27247;48.020;16.720;2023-03-21T02:49:07;99962.19;;;8.76;85.56
41515;BME280;27247;48.020;16.720;2023-03-21T02:53:22;99963.03;;;8.77;84.96
41515;BME280;27247;48.020;16.720;2023-03-21T02:57:34;99955.84;;;8.69;85.09
41515;BME280;27247;48.020;16.720;2023-03-21T03:01:44;99954.50;;;8.65;84.67
41515;BME280;27247;48.020;16.720;2023-03-21T03:05:56;99946.47;;;8.57;83.52
41515;BME280;27247;48.020;16.720;2023-03-21T03:10:46;99940.28;;;8.48;83.99
41515;BME280;27247;48.020;16.720;2023-03-21T03:19:29;99942.09;;;8.48;84.34
41515;BME280;27247;48.020;16.720;2023-03-21T03:23:44;99951.53;;;8.34;84.16
41515;BME280;27247;48.020;16.720;2023-03-21T03:27:56;99950.59;;;8.25;84.13
41515;BME280;27247;48.020;16.720;2023-03-21T03:32:16;99944.53;;;8.15;85.86
41515;BME280;27247;48.020;16.720;2023-03-21T03:36:30;99957.00;;;8.15;86.85
41515;BME280;27247;48.020;16.720;2023-03-21T03:40:52;99951.22;;;8.19;88.08
41515;BME280;27247;48.020;16.720;2023-03-21T03:45:05;99952.22;;;8.18;88.37
41515;BME280;27247;48.020;16.720;2023-03-21T03:49:22;99957.06;;;8.23;88.94
41515;BME280;27247;48.020;16.720;2023-03-21T03:53:37;99951.78;;;8.31;89.76
41515;BME280;27247;48.020;16.720;2023-03-21T03:57:51;99958.38;;;8.37;89.64
41515;BME280;27247;48.020;16.720;2023-03-21T04:02:02;99953.88;;;8.37;88.34
41515;BME280;27247;48.020;16.720;2023-03-21T04:06:13;99958.03;;;8.40;87.98
41515;BME280;27247;48.020;16.720;2023-03-21T04:10:23;99949.69;;;7.91;85.70
41515;BME280;27247;48.020;16.720;2023-03-21T04:14:34;99953.81;;;7.85;85.54
41515;BME280;27247;48.020;16.720;2023-03-21T04:18:44;99955.75;;;7.75;85.27
41515;BME280;27247;48.020;16.720;2023-03-21T04:22:56;99949.78;;;7.81;85.74
41515;BME280;27247;48.020;16.720;2023-03-21T04:27:06;99958.31;;;7.85;86.91
41515;BME280;27247;48.020;16.720;2023-03-21T04:31:16;99961.75;;;7.77;86.29
41515;BME280;27247;48.020;16.720;2023-03-21T04:35:27;99958.09;;;7.78;87.27
41515;BME280;27247;48.020;16.720;2023-03-21T04:39:38;99962.41;;;7.79;88.08
41515;BME280;27247;48.020;16.720;2023-03-21T04:43:48;99960.69;;;7.70;88.74
41515;BME280;27247;48.020;16.720;2023-03-21T04:47:58;99965.84;;;7.72;87.07
41515;BME280;27247;48.020;16.720;2023-03-21T04:52:09;99965.25;;;7.60;88.01
41515;BME280;27247;48.020;16.720;2023-03-21T04:56:19;99965.66;;;7.47;88.31
41515;BME280;27247;48.020;16.720;2023-03-21T05:00:31;99966.78;;;7.45;88.00
41515;BME280;27247;48.020;16.720;2023-03-21T05:04:46;99971.56;;;7.41;89.06
41515;BME280;27247;48.020;16.720;2023-03-21T05:08:58;99967.47;;;7.47;88.91
41515;BME280;27247;48.020;16.720;2023-03-21T05:13:14;99983.41;;;7.47;88.38
41515;BME280;27247;48.020;16.720;2023-03-21T05:17:24;99981.28;;;7.50;88.98
41515;BME280;27247;48.020;16.720;2023-03-21T05:21:37;99982.34;;;7.57;88.18
41515;BME280;27247;48.020;16.720;2023-03-21T05:25:50;99985.78;;;7.50;87.80
41515;BME280;27247;48.020;16.720;2023-03-21T05:30:05;99988.34;;;7.59;88.53
41515;BME280;27247;48.020;16.720;2023-03-21T05:34:16;99984.03;;;7.58;88.72
41515;BME280;27247;48.020;16.720;2023-03-21T05:38:26;99988.66;;;7.74;90.43
41515;BME280;27247;48.020;16.720;2023-03-21T05:42:37;99986.88;;;7.83;91.45
41515;BME280;27247;48.020;16.720;2023-03-21T05:46:47;99987.56;;;7.85;91.73
41515;BME280;27247;48.020;16.720;2023-03-21T05:50:57;99990.28;;;7.93;91.76
41515;BME280;27247;48.020;16.720;2023-03-21T05:55:08;100002.81;;;8.00;91.58
41515;BME280;27247;48.020;16.720;2023-03-21T05:59:18;100000.53;;;8.06;92.03
41515;BME280;27247;48.020;16.720;2023-03-21T06:03:28;99993.75;;;8.11;92.25
41515;BME280;27247;48.020;16.720;2023-03-21T06:07:39;100001.47;;;8.22;92.83
41515;BME280;27247;48.020;16.720;2023-03-21T06:11:51;100011.50;;;8.28;92.50
41515;BME280;27247;48.020;16.720;2023-03-21T06:16:02;100005.81;;;8.41;92.44
41515;BME280;27247;48.020;16.720;2023-03-21T06:20:13;100009.41;;;8.58;92.36
41515;BME280;27247;48.020;16.720;2023-03-21T06:24:23;100012.81;;;8.76;91.77
41515;BME280;27247;48.020;16.720;2023-03-21T06:28:35;100009.75;;;8.97;91.42
41515;BME280;27247;48.020;16.720;2023-03-21T06:32:46;100016.09;;;9.04;92.68
41515;BME280;27247;48.020;16.720;2023-03-21T06:36:56;100008.34;;;9.27;91.75
41515;BME280;27247;48.020;16.720;2023-03-21T06:41:07;100015.72;;;9.41;92.12
41515;BME280;27247;48.020;16.720;2023-03-21T06:45:18;100013.25;;;9.56;91.04
41515;BME280;27247;48.020;16.720;2023-03-21T06:49:29;100017.44;;;9.75;89.77
41515;BME280;27247;48.020;16.720;2023-03-21T06:53:40;100011.94;;;9.84;89.56
41515;BME280;27247;48.020;16.720;2023-03-21T06:57:53;100014.28;;;9.96;89.21
41515;BME280;27247;48.020;16.720;2023-03-21T07:02:03;100012.28;;;9.98;89.13
41515;BME280;27247;48.020;16.720;2023-03-21T07:06:14;100010.09;;;10.01;88.93
41515;BME280;27247;48.020;16.720;2023-03-21T07:10:25;100016.94;;;10.12;88.28
41515;BME280;27247;48.020;16.720;2023-03-21T07:14:36;100014.44;;;10.35;88.65
41515;BME280;27247;48.020;16.720;2023-03-21T07:18:46;100018.69;;;10.76;87.01
41515;BME280;27247;48.020;16.720;2023-03-21T07:22:57;100023.56;;;11.12;85.04
41515;BME280;27247;48.020;16.720;2023-03-21T07:27:07;100017.38;;;11.42;82.65
41515;BME280;27247;48.020;16.720;2023-03-21T07:31:18;100002.31;;;11.72;81.80
41515;BME280;27247;48.020;16.720;2023-03-21T07:35:29;100006.31;;;11.99;80.45
41515;BME280;27247;48.020;16.720;2023-03-21T07:39:39;100003.78;;;12.35;78.70
41515;BME280;27247;48.020;16.720;2023-03-21T07:43:50;100004.78;;;12.72;76.31
41515;BME280;27247;48.020;16.720;2023-03-21T07:48:00;100002.69;;;13.03;74.97
41515;BME280;27247;48.020;16.720;2023-03-21T07:52:11;100003.81;;;13.24;72.53
41515;BME280;27247;48.020;16.720;2023-03-21T07:56:22;100008.69;;;13.35;71.10
41515;BME280;27247;48.020;16.720;2023-03-21T08:00:32;100012.91;;;13.59;70.54
41515;BME280;27247;48.020;16.720;2023-03-21T08:04:44;100009.69;;;13.70;68.89
41515;BME280;27247;48.020;16.720;2023-03-21T08:08:54;100010.09;;;13.88;69.21
41515;BME280;27247;48.020;16.720;2023-03-21T08:13:05;100006.16;;;14.12;67.97
41515;BME280;27247;48.020;16.720;2023-03-21T08:17:15;100007.28;;;14.24;66.39
41515;BME280;27247;48.020;16.720;2023-03-21T08:21:26;100002.75;;;14.25;65.92
41515;BME280;27247;48.020;16.720;2023-03-21T08:25:37;100006.88;;;14.49;64.37
41515;BME280;27247;48.020;16.720;2023-03-21T08:29:47;100000.19;;;14.66;63.29
41515;BME280;27247;48.020;16.720;2023-03-21T08:33:58;100002.34;;;14.84;63.77
41515;BME280;27247;48.020;16.720;2023-03-21T08:38:08;99999.56;;;15.05;62.52
41515;BME280;27247;48.020;16.720;2023-03-21T08:42:19;99993.59;;;15.16;61.90
41515;BME280;27247;48.020;16.720;2023-03-21T08:46:31;99984.13;;;15.40;61.17
41515;BME280;27247;48.020;16.720;2023-03-21T08:50:42;99997.59;;;15.40;61.06
41515;BME280;27247;48.020;16.720;2023-03-21T08:54:53;99987.13;;;15.58;60.96
41515;BME280;27247;48.020;16.720;2023-03-21T08:59:03;99978.47;;;15.70;61.09
41515;BME280;27247;48.020;16.720;2023-03-21T09:03:14;99980.31;;;15.69;60.32
41515;BME280;27247;48.020;16.720;2023-03-21T09:07:25;99984.25;;;15.67;61.35
41515;BME280;27247;48.020;16.720;2023-03-21T09:11:37;99986.56;;;15.83;60.33
41515;BME280;27247;48.020;16.720;2023-03-21T09:15:47;99983.88;;;15.96;59.92
41515;BME280;27247;48.020;16.720;2023-03-21T09:19:58;99976.81;;;16.21;59.04
41515;BME280;27247;48.020;16.720;2023-03-21T09:24:09;99972.88;;;16.11;59.07
41515;BME280;27247;48.020;16.720;2023-03-21T09:28:21;99975.53;;;16.37;59.14
41515;BME280;27247;48.020;16.720;2023-03-21T09:32:34;99972.25;;;16.15;59.22
41515;BME280;27247;48.020;16.720;2023-03-21T09:36:45;99961.88;;;16.19;59.62
41515;BME280;27247;48.020;16.720;2023-03-21T09:45:39;99972.88;;;15.84;59.76
41515;BME280;27247;48.020;16.720;2023-03-21T09:50:05;99966.84;;;15.62;60.53
41515;BME280;27247;48.020;16.720;2023-03-21T09:54:25;99954.13;;;15.56;59.61
41515;BME280;27247;48.020;16.720;2023-03-21T09:58:45;99968.72;;;15.62;58.94
41515;BME280;27247;48.020;16.720;2023-03-21T10:03:03;99956.91;;;15.76;58.77
41515;BME280;27247;48.020;16.720;2023-03-21T10:07:15;99956.50;;;15.79;58.06
41515;BME280;27247;48.020;16.720;2023-03-21T10:11:34;99952.34;;;15.77;58.75
41515;BME280;27247;48.020;16.720;2023-03-21T10:15:55;99944.25;;;15.63;58.14
41515;BME280;27247;48.020;16.720;2023-03-21T10:20:15;99945.28;;;15.69;58.08
41515;BME280;27247;48.020;16.720;2023-03-21T10:24:28;99941.13;;;15.60;58.53
41515;BME280;27247;48.020;16.720;2023-03-21T10:28:40;99940.31;;;15.73;58.95
41515;BME280;27247;48.020;16.720;2023-03-21T10:32:51;99938.25;;;15.68;58.69
41515;BME280;27247;48.020;16.720;2023-03-21T10:37:02;99938.88;;;15.90;58.34
41515;BME280;27247;48.020;16.720;2023-03-21T10:41:14;99938.44;;;16.19;58.74
41515;BME280;27247;48.020;16.720;2023-03-21T10:45:25;99935.25;;;16.75;58.29
41515;BME280;27247;48.020;16.720;2023-03-21T10:49:37;99927.94;;;17.27;56.56
41515;BME280;27247;48.020;16.720;2023-03-21T10:53:54;99936.47;;;17.24;55.38
41515;BME280;27247;48.020;16.720;2023-03-21T10:58:07;99928.06;;;17.39;54.94
41515;BME280;27247;48.020;16.720;2023-03-21T11:02:28;99936.44;;;17.62;55.02
41515;BME280;27247;48.020;16.720;2023-03-21T11:06:42;99933.00;;;17.48;54.58
41515;BME280;27247;48.020;16.720;2023-03-21T11:11:00;99929.53;;;17.35;54.45
41515;BME280;27247;48.020;16.720;2023-03-21T11:15:41;99922.78;;;17.19;54.95
41515;BME280;27247;48.020;16.720;2023-03-21T11:19:56;99922.34;;;16.84;55.40
41515;BME280;27247;48.020;16.720;2023-03-21T11:24:12;99911.19;;;16.67;55.33
41515;BME280;27247;48.020;16.720;2023-03-21T11:28:26;99921.38;;;16.65;56.21
41515;BME280;27247;48.020;16.720;2023-03-21T11:32:42;99902.88;;;16.55;56.04
41515;BME280;27247;48.020;16.720;2023-03-21T11:36:57;99888.13;;;16.71;56.52
41515;BME280;27247;48.020;16.720;2023-03-21T11:41:08;99894.72;;;17.20;54.62
41515;BME280;27247;48.020;16.720;2023-03-21T11:45:33;99879.84;;;17.99;54.52
41515;BME280;27247;48.020;16.720;2023-03-21T11:49:44;99879.13;;;18.46;52.99
41515;BME280;27247;48.020;16.720;2023-03-21T11:54:11;99870.97;;;19.01;51.67
41515;BME280;27247;48.020;16.720;2023-03-21T11:58:45;99856.25;;;19.39;50.89
41515;BME280;27247;48.020;16.720;2023-03-21T12:12:17;99841.59;;;20.17;49.18
41515;BME280;27247;48.020;16.720;2023-03-21T12:17:04;99839.56;;;19.54;49.79
41515;BME280;27247;48.020;16.720;2023-03-21T12:26:10;99825.47;;;19.33;50.06
41515;BME280;27247;48.020;16.720;2023-03-21T12:30:49;99818.28;;;19.39;50.06
41515;BME280;27247;48.020;16.720;2023-03-21T12:39:47;99807.88;;;18.16;52.01
41515;BME280;27247;48.020;16.720;2023-03-21T12:44:19;99811.84;;;17.95;52.89
41515;BME280;27247;48.020;16.720;2023-03-21T12:48:42;99810.66;;;17.66;53.18
41515;BME280;27247;48.020;16.720;2023-03-21T12:53:00;99801.75;;;17.59;54.71
41515;BME280;27247;48.020;16.720;2023-03-21T12:57:19;99790.72;;;17.61;54.32
41515;BME280;27247;48.020;16.720;2023-03-21T13:01:34;99795.19;;;17.48;54.42
41515;BME280;27247;48.020;16.720;2023-03-21T13:05:57;99791.88;;;17.46;54.65
41515;BME280;27247;48.020;16.720;2023-03-21T13:10:18;99786.59;;;17.58;53.80
41515;BME280;27247;48.020;16.720;2023-03-21T13:14:37;99779.38;;;17.77;54.11
41515;BME280;27247;48.020;16.720;2023-03-21T13:19:07;99770.53;;;17.70;54.47
41515;BME280;27247;48.020;16.720;2023-03-21T13:23:24;99772.25;;;17.58;53.93
41515;BME280;27247;48.020;16.720;2023-03-21T13:27:36;99762.00;;;17.41;54.04
41515;BME280;27247;48.020;16.720;2023-03-21T13:31:52;99760.03;;;17.30;54.34
41515;BME280;27247;48.020;16.720;2023-03-21T13:36:07;99763.28;;;17.14;54.60
41515;BME280;27247;48.020;16.720;2023-03-21T13:44:40;99754.69;;;16.99;55.19
41515;BME280;27247;48.020;16.720;2023-03-21T13:53:21;99753.72;;;16.86;55.87
41515;BME280;27247;48.020;16.720;2023-03-21T14:06:33;99741.28;;;16.85;55.40
41515;BME280;27247;48.020;16.720;2023-03-21T14:10:46;99735.53;;;16.75;55.07
41515;BME280;27247;48.020;16.720;2023-03-21T14:15:02;99729.56;;;16.67;55.55
41515;BME280;27247;48.020;16.720;2023-03-21T14:19:13;99735.34;;;16.64;56.29
41515;BME280;27247;48.020;16.720;2023-03-21T14:23:24;99728.28;;;16.63;55.93
41515;BME280;27247;48.020;16.720;2023-03-21T14:27:35;99729.94;;;16.64;55.36
41515;BME280;27247;48.020;16.720;2023-03-21T14:31:47;99719.41;;;16.55;56.05
41515;BME280;27247;48.020;16.720;2023-03-21T14:35:59;99728.56;;;16.54;56.02
41515;BME280;27247;48.020;16.720;2023-03-21T14:40:22;99712.22;;;16.43;56.18
41515;BME280;27247;48.020;16.720;2023-03-21T14:48:43;99703.47;;;16.16;57.07
41515;BME280;27247;48.020;16.720;2023-03-21T14:52:54;99700.78;;;16.09;57.15
41515;BME280;27247;48.020;16.720;2023-03-21T14:57:09;99695.84;;;16.06;57.44
41515;BME280;27247;48.020;16.720;2023-03-21T15:01:27;99698.53;;;16.06;57.81
41515;BME280;27247;48.020;16.720;2023-03-21T15:05:40;99702.47;;;16.04;58.42
41515;BME280;27247;48.020;16.720;2023-03-21T15:09:56;99696.66;;;16.07;57.94
41515;BME280;27247;48.020;16.720;2023-03-21T15:14:10;99696.84;;;16.12;57.89
41515;BME280;27247;48.020;16.720;2023-03-21T15:18:27;99703.28;;;16.11;58.02
41515;BME280;27247;48.020;16.720;2023-03-21T15:22:43;99703.25;;;16.17;57.78
41515;BME280;27247;48.020;16.720;2023-03-21T15:27:05;99697.22;;;16.22;58.46
41515;BME280;27247;48.020;16.720;2023-03-21T15:31:18;99701.34;;;16.24;58.27
41515;BME280;27247;48.020;16.720;2023-03-21T15:35:40;99696.34;;;16.28;57.60
41515;BME280;27247;48.020;16.720;2023-03-21T15:39:52;99700.50;;;16.24;57.54
41515;BME280;27247;48.020;16.720;2023-03-21T15:48:26;99691.25;;;16.13;57.61
41515;BME280;27247;48.020;16.720;2023-03-21T15:52:37;99685.63;;;16.15;57.28
41515;BME280;27247;48.020;16.720;2023-03-21T15:56:47;99682.75;;;16.10;57.66
41515;BME280;27247;48.020;16.720;2023-03-21T16:01:04;99686.09;;;16.05;57.99
41515;BME280;27247;48.020;16.720;2023-03-21T16:05:29;99692.34;;;15.99;58.25
41515;BME280;27247;48.020;16.720;2023-03-21T16:09:42;99689.44;;;16.01;58.39
41515;BME280;27247;48.020;16.720;2023-03-21T16:13:55;99694.03;;;15.93;58.45
41515;BME280;27247;48.020;16.720;2023-03-21T16:18:06;99688.63;;;15.93;58.61
41515;BME280;27247;48.020;16.720;2023-03-21T16:22:16;99686.41;;;15.84;58.92
41515;BME280;27247;48.020;16.720;2023-03-21T16:26:31;99687.25;;;15.78;58.91
41515;BME280;27247;48.020;16.720;2023-03-21T16:30:43;99694.53;;;15.71;59.20
41515;BME280;27247;48.020;16.720;2023-03-21T16:34:54;99692.06;;;15.62;59.01
41515;BME280;27247;48.020;16.720;2023-03-21T16:39:15;99693.47;;;15.52;59.25
41515;BME280;27247;48.020;16.720;2023-03-21T16:43:26;99687.06;;;15.46;59.05
41515;BME280;27247;48.020;16.720;2023-03-21T16:47:37;99689.59;;;15.34;59.59
41515;BME280;27247;48.020;16.720;2023-03-21T16:51:47;99691.03;;;15.30;59.71
41515;BME280;27247;48.020;16.720;2023-03-21T16:56:00;99683.59;;;15.19;59.76
41515;BME280;27247;48.020;16.720;2023-03-21T17:00:15;99690.25;;;15.10;60.01
41515;BME280;27247;48.020;16.720;2023-03-21T17:04:28;99699.97;;;14.98;60.31
41515;BME280;27247;48.020;16.720;2023-03-21T17:08:38;99693.97;;;14.96;60.82
41515;BME280;27247;48.020;16.720;2023-03-21T17:12:49;99689.63;;;14.88;60.10
41515;BME280;27247;48.020;16.720;2023-03-21T17:16:59;99689.22;;;14.65;60.76
41515;BME280;27247;48.020;16.720;2023-03-21T17:21:19;99704.47;;;14.51;60.27
41515;BME280;27247;48.020;16.720;2023-03-21T17:25:29;99702.13;;;14.28;61.20
41515;BME280;27247;48.020;16.720;2023-03-21T17:29:40;99698.00;;;14.32;61.06
41515;BME280;27247;48.020;16.720;2023-03-21T17:33:50;99707.91;;;14.25;61.04
41515;BME280;27247;48.020;16.720;2023-03-21T17:38:00;99703.81;;;13.82;61.51
41515;BME280;27247;48.020;16.720;2023-03-21T17:42:13;99712.59;;;13.62;61.25
41515;BME280;27247;48.020;16.720;2023-03-21T17:46:28;99719.81;;;13.62;61.91
41515;BME280;27247;48.020;16.720;2023-03-21T17:50:39;99723.50;;;13.54;62.37
41515;BME280;27247;48.020;16.720;2023-03-21T17:54:50;99723.19;;;13.42;62.31
41515;BME280;27247;48.020;16.720;2023-03-21T17:59:03;99722.09;;;13.09;62.44
41515;BME280;27247;48.020;16.720;2023-03-21T18:03:14;99722.31;;;12.86;62.16
41515;BME280;27247;48.020;16.720;2023-03-21T18:07:24;99719.09;;;12.69;63.65
41515;BME280;27247;48.020;16.720;2023-03-21T18:11:37;99734.41;;;12.54;64.42
41515;BME280;27247;48.020;16.720;2023-03-21T18:15:48;99731.94;;;12.38;65.25
41515;BME280;27247;48.020;16.720;2023-03-21T18:19:59;99737.66;;;11.99;66.00
41515;BME280;27247;48.020;16.720;2023-03-21T18:24:12;99738.25;;;11.79;68.72
41515;BME280;27247;48.020;16.720;2023-03-21T18:28:23;99735.91;;;11.91;68.26
41515;BME280;27247;48.020;16.720;2023-03-21T18:32:34;99747.47;;;11.92;67.53
41515;BME280;27247;48.020;16.720;2023-03-21T18:36:45;99734.91;;;11.77;67.99
41515;BME280;27247;48.020;16.720;2023-03-21T18:40:57;99741.81;;;11.72;68.91
41515;BME280;27247;48.020;16.720;2023-03-21T18:45:10;99747.06;;;11.65;68.00
41515;BME280;27247;48.020;16.720;2023-03-21T18:49:21;99750.75;;;11.49;67.46
41515;BME280;27247;48.020;16.720;2023-03-21T18:53:32;99750.81;;;11.41;68.49
41515;BME280;27247;48.020;16.720;2023-03-21T18:57:43;99753.25;;;11.51;69.09
41515;BME280;27247;48.020;16.720;2023-03-21T19:01:55;99756.41;;;11.17;69.68
41515;BME280;27247;48.020;16.720;2023-03-21T19:06:06;99753.88;;;11.01;70.65
41515;BME280;27247;48.020;16.720;2023-03-21T19:10:19;99748.88;;;10.98;70.97
41515;BME280;27247;48.020;16.720;2023-03-21T19:14:30;99753.25;;;11.13;69.51
41515;BME280;27247;48.020;16.720;2023-03-21T19:18:41;99757.28;;;10.72;71.10
41515;BME280;27247;48.020;16.720;2023-03-21T19:22:53;99760.56;;;10.28;73.65
41515;BME280;27247;48.020;16.720;2023-03-21T19:27:05;99764.41;;;10.17;73.68
41515;BME280;27247;48.020;16.720;2023-03-21T19:31:17;99757.88;;;10.28;73.71
41515;BME280;27247;48.020;16.720;2023-03-21T19:35:28;99752.06;;;10.16;74.88
41515;BME280;27247;48.020;16.720;2023-03-21T19:39:39;99761.75;;;10.17;74.36
41515;BME280;27247;48.020;16.720;2023-03-21T19:43:51;99753.97;;;10.39;74.20
41515;BME280;27247;48.020;16.720;2023-03-21T19:48:02;99760.00;;;10.41;73.62
41515;BME280;27247;48.020;16.720;2023-03-21T19:52:13;99763.56;;;10.25;73.62
41515;BME280;27247;48.020;16.720;2023-03-21T19:56:24;99767.66;;;10.05;70.71
41515;BME280;27247;48.020;16.720;2023-03-21T20:00:36;99767.03;;;9.95;69.47
41515;BME280;27247;48.020;16.720;2023-03-21T20:04:46;99769.53;;;9.96;69.62
41515;BME280;27247;48.020;16.720;2023-03-21T20:08:58;99780.47;;;10.09;73.22
41515;BME280;27247;48.020;16.720;2023-03-21T20:13:09;99777.31;;;10.06;74.16
41515;BME280;27247;48.020;16.720;2023-03-21T20:17:20;99781.44;;;10.16;74.68
41515;BME280;27247;48.020;16.720;2023-03-21T20:21:32;99771.84;;;10.38;74.66
41515;BME280;27247;48.020;16.720;2023-03-21T20:25:44;99774.31;;;10.48;74.77
41515;BME280;27247;48.020;16.720;2023-03-21T20:29:55;99775.03;;;10.65;74.90
41515;BME280;27247;48.020;16.720;2023-03-21T20:34:06;99772.31;;;10.73;75.06
41515;BME280;27247;48.020;16.720;2023-03-21T20:38:18;99774.44;;;10.54;75.66
41515;BME280;27247;48.020;16.720;2023-03-21T20:42:30;99773.38;;;10.41;74.31
41515;BME280;27247;48.020;16.720;2023-03-21T20:46:42;99772.84;;;10.37;73.16
41515;BME280;27247;48.020;16.720;2023-03-21T20:50:53;99778.34;;;10.44;73.73
41515;BME280;27247;48.020;16.720;2023-03-21T20:55:04;99777.00;;;10.40;73.51
41515;BME280;27247;48.020;16.720;2023-03-21T20:59:18;99787.31;;;10.51;74.64
41515;BME280;27247;48.020;16.720;2023-03-21T21:03:30;99781.81;;;10.75;75.20
41515;BME280;27247;48.020;16.720;2023-03-21T21:07:48;99777.41;;;10.82;75.73
41515;BME280;27247;48.020;16.720;2023-03-21T21:11:59;99773.75;;;10.83;75.29
41515;BME280;27247;48.020;16.720;2023-03-21T21:16:10;99775.75;;;10.81;73.63
41515;BME280;27247;48.020;16.720;2023-03-21T21:20:21;99784.59;;;10.82;73.98
41515;BME280;27247;48.020;16.720;2023-03-21T21:24:32;99784.50;;;10.75;74.05
41515;BME280;27247;48.020;16.720;2023-03-21T21:28:42;99782.75;;;10.60;73.57
41515;BME280;27247;48.020;16.720;2023-03-21T21:32:55;99779.44;;;10.58;74.59
41515;BME280;27247;48.020;16.720;2023-03-21T21:37:08;99779.31;;;10.51;74.85
41515;BME280;27247;48.020;16.720;2023-03-21T21:41:20;99776.16;;;10.47;74.92
41515;BME280;27247;48.020;16.720;2023-03-21T21:45:30;99773.50;;;10.47;74.29
41515;BME280;27247;48.020;16.720;2023-03-21T21:49:41;99775.31;;;10.47;74.47
41515;BME280;27247;48.020;16.720;2023-03-21T21:53:52;99780.22;;;10.35;75.45
41515;BME280;27247;48.020;16.720;2023-03-21T21:58:05;99781.38;;;10.33;76.11
41515;BME280;27247;48.020;16.720;2023-03-21T22:02:17;99782.44;;;10.15;77.02
41515;BME280;27247;48.020;16.720;2023-03-21T22:06:27;99783.81;;;10.11;76.22
41515;BME280;27247;48.020;16.720;2023-03-21T22:10:38;99773.16;;;10.03;74.56
41515;BME280;27247;48.020;16.720;2023-03-21T22:14:48;99777.19;;;9.99;75.16
41515;BME280;27247;48.020;16.720;2023-03-21T22:18:59;99784.22;;;9.92;76.24
41515;BME280;27247;48.020;16.720;2023-03-21T22:23:09;99784.34;;;9.99;76.78
41515;BME280;27247;48.020;16.720;2023-03-21T22:27:19;99790.84;;;10.04;76.79
41515;BME280;27247;48.020;16.720;2023-03-21T22:31:30;99786.84;;;10.00;77.73
41515;BME280;27247;48.020;16.720;2023-03-21T22:35:41;99787.34;;;10.04;77.08
41515;BME280;27247;48.020;16.720;2023-03-21T22:39:51;99789.53;;;10.00;75.64
41515;BME280;27247;48.020;16.720;2023-03-21T22:44:01;99780.06;;;9.89;75.99
41515;BME280;27247;48.020;16.720;2023-03-21T22:48:12;99786.75;;;9.85;76.15
41515;BME280;27247;48.020;16.720;2023-03-21T22:52:22;99788.47;;;9.70;75.50
41515;BME280;27247;48.020;16.720;2023-03-21T22:56:32;99793.44;;;9.81;76.47
41515;BME280;27247;48.020;16.720;2023-03-21T23:00:43;99793.09;;;9.84;77.75
41515;BME280;27247;48.020;16.720;2023-03-21T23:04:53;99788.44;;;9.78;78.70
41515;BME280;27247;48.020;16.720;2023-03-21T23:09:05;99793.50;;;9.49;79.50
41515;BME280;27247;48.020;16.720;2023-03-21T23:13:15;99797.69;;;9.51;79.59
41515;BME280;27247;48.020;16.720;2023-03-21T23:17:25;99792.34;;;9.51;79.34
41515;BME280;27247;48.020;16.720;2023-03-21T23:21:36;99793.81;;;9.62;79.36
41515;BME280;27247;48.020;16.720;2023-03-21T23:25:47;99799.31;;;9.69;79.78